Time;durP1;ratioP1;P1;durP2;ratioP2;P2;SDS_P1;SDS_P2;PMS_P1;PMS_P2;Temp;Humidity;BMP_temperature;BMP_pressure;BME280_temperature;BME280_humidity;BME280_pressure;Samples;Min_cycle;Max_cycle;Signal;HPM_P1;HPM_P2
2024/01/19 00:01:29;;;;;;;1999.90;999.90;;;;;;;7.25;100.00;95319.19;5114570;28;20043;-65
2024/01/19 00:03:59;;;;;;;1999.90;999.90;;;;;;;7.22;100.00;95325.38;5114552;28;20061;-67
2024/01/19 00:06:26;;;;;;;1999.90;999.90;;;;;;;7.18;100.00;95327.28;5114834;28;20144;-67
2024/01/19 00:08:53;;;;;;;1999.90;999.90;;;;;;;7.14;100.00;95325.72;5114843;28;20550;-68
2024/01/19 00:11:20;;;;;;;1999.90;999.90;;;;;;;7.19;100.00;95328.94;5114643;28;20051;-66
2024/01/19 00:13:47;;;;;;;1999.90;999.90;;;;;;;7.27;100.00;95331.22;5114497;28;20052;-65
2024/01/19 00:16:14;;;;;;;1999.90;999.90;;;;;;;7.29;100.00;95337.19;5114333;28;20451;-69
2024/01/19 00:18:41;;;;;;;1999.90;999.90;;;;;;;7.31;100.00;95337.13;5114537;28;20055;-64
2024/01/19 00:21:09;;;;;;;1999.90;999.90;;;;;;;7.33;100.00;95338.75;5114331;28;20416;-68
2024/01/19 00:23:36;;;;;;;1999.90;999.90;;;;;;;7.35;100.00;95328.28;5114214;28;20052;-67
2024/01/19 00:26:04;;;;;;;1999.90;999.90;;;;;;;7.39;100.00;95340.25;5114148;28;20050;-65
2024/01/19 00:28:30;;;;;;;1999.90;999.90;;;;;;;7.46;100.00;95343.41;5114106;28;20039;-66
2024/01/19 00:30:57;;;;;;;1999.90;999.90;;;;;;;7.54;100.00;95336.09;5114071;28;20052;-65
2024/01/19 00:33:24;;;;;;;1999.90;999.90;;;;;;;7.61;100.00;95344.47;5114148;28;20131;-62
2024/01/19 00:35:51;;;;;;;1999.90;999.90;;;;;;;7.73;100.00;95337.84;5114223;28;20051;-68
2024/01/19 00:38:20;;;;;;;1999.90;999.90;;;;;;;7.87;100.00;95337.22;5113947;28;20142;-64
2024/01/19 00:40:47;;;;;;;1999.90;999.90;;;;;;;8.02;100.00;95335.66;5113793;28;20048;-66
2024/01/19 00:43:14;;;;;;;1999.90;999.90;;;;;;;8.04;100.00;95326.00;5113826;28;20519;-69
2024/01/19 00:45:41;;;;;;;1999.90;999.90;;;;;;;8.12;100.00;95330.03;5113896;28;20051;-65
2024/01/19 00:48:08;;;;;;;1999.90;999.90;;;;;;;8.20;100.00;95327.91;5113883;28;20053;-65
2024/01/19 00:50:35;;;;;;;1999.90;999.90;;;;;;;8.26;100.00;95327.59;5113807;28;20525;-65
2024/01/19 00:53:02;;;;;;;1999.90;999.90;;;;;;;8.37;100.00;95319.25;5113709;28;20505;-67
2024/01/19 00:55:31;;;;;;;1999.90;999.90;;;;;;;8.47;100.00;95322.25;5113649;28;20397;-65
2024/01/19 00:57:58;;;;;;;1999.90;999.90;;;;;;;8.52;100.00;95333.28;5113913;28;20047;-69
2024/01/19 01:00:25;;;;;;;1999.90;999.90;;;;;;;8.53;100.00;95328.94;5113701;28;20076;-65
2024/01/19 01:02:52;;;;;;;1999.90;999.90;;;;;;;8.58;100.00;95327.00;5113629;28;20048;-66
2024/01/19 01:05:18;;;;;;;1999.90;999.90;;;;;;;8.61;100.00;95326.00;5113559;28;20049;-68
2024/01/19 01:07:45;;;;;;;1999.90;999.90;;;;;;;8.65;100.00;95317.09;5113492;28;20039;-65
2024/01/19 01:10:12;;;;;;;1999.90;999.90;;;;;;;8.69;100.00;95310.78;5113645;28;20075;-67
2024/01/19 01:12:41;;;;;;;1999.90;999.90;;;;;;;8.69;100.00;95303.81;5113689;28;20143;-63
2024/01/19 01:15:08;;;;;;;1999.90;999.90;;;;;;;8.71;100.00;95303.75;5113483;28;20043;-66
2024/01/19 01:17:35;;;;;;;1999.90;999.90;;;;;;;8.79;99.32;95298.16;5113466;28;20135;-65
2024/01/19 01:20:02;;;;;;;1999.90;999.90;;;;;;;8.78;99.00;95293.84;5113420;28;20043;-67
2024/01/19 01:22:31;;;;;;;1999.90;999.90;;;;;;;8.75;99.30;95300.06;5113616;28;20050;-65
2024/01/19 01:24:58;;;;;;;1999.90;999.90;;;;;;;8.76;98.39;95295.69;5113518;28;20472;-69
2024/01/19 01:27:25;;;;;;;1999.90;999.90;;;;;;;8.81;98.49;95296.28;5113319;28;20572;-66
2024/01/19 01:29:53;;;;;;;1999.90;999.90;;;;;;;8.84;98.44;95291.78;5113334;28;20075;-67
2024/01/19 01:32:20;;;;;;;1999.90;999.90;;;;;;;8.89;98.41;95291.56;5113344;28;20470;-68
2024/01/19 01:34:47;;;;;;;1999.90;999.90;;;;;;;8.84;98.19;95296.13;5113458;28;20110;-68
2024/01/19 01:37:14;;;;;;;1999.90;999.90;;;;;;;8.84;98.35;95293.53;5117634;28;20083;-65
2024/01/19 01:39:41;;;;;;;1999.90;999.90;;;;;;;8.88;97.14;95291.63;5117448;28;20081;-65
2024/01/19 01:42:08;;;;;;;1999.90;999.90;;;;;;;8.87;97.22;95288.16;5117651;28;20048;-66
2024/01/19 01:44:35;;;;;;;1999.90;999.90;;;;;;;8.88;97.45;95287.22;5117464;28;20100;-63
2024/01/19 01:47:03;;;;;;;1999.90;999.90;;;;;;;8.88;96.77;95289.84;5117400;28;20052;-67
2024/01/19 01:49:31;;;;;;;1999.90;999.90;;;;;;;8.88;96.45;95289.03;5117357;28;20100;-66
2024/01/19 01:51:58;;;;;;;1999.90;999.90;;;;;;;8.90;95.79;95293.22;5116996;28;20051;-70
2024/01/19 01:54:26;;;;;;;1999.90;999.90;;;;;;;8.85;95.32;95285.63;5117161;28;20485;-66
2024/01/19 01:56:54;;;;;;;1999.90;999.90;;;;;;;8.90;95.55;95294.97;5117402;28;20054;-65
2024/01/19 01:59:21;;;;;;;1999.90;999.90;;;;;;;8.93;95.21;95295.69;5117157;28;20044;-68
2024/01/19 02:01:49;;;;;;;1999.90;999.90;;;;;;;8.91;95.69;95287.06;5116923;28;20047;-67
2024/01/19 02:04:18;;;;;;;1999.90;999.90;;;;;;;8.91;95.00;95287.06;5116993;28;20050;-64
2024/01/19 02:06:45;;;;;;;1999.90;999.90;;;;;;;8.93;94.80;95281.78;5117008;28;20075;-69
2024/01/19 02:09:13;;;;;;;1999.90;999.90;;;;;;;8.93;95.23;95273.97;5116864;28;20123;-66
2024/01/19 02:11:40;;;;;;;1999.90;999.90;;;;;;;8.95;94.91;95282.56;5117103;28;20131;-68
2024/01/19 02:14:09;;;;;;;1999.90;999.90;;;;;;;8.93;94.65;95281.78;5116724;28;20058;-65
2024/01/19 02:16:36;;;;;;;1999.90;999.90;;;;;;;8.96;94.83;95282.47;5116742;28;20043;-64
2024/01/19 02:19:03;;;;;;;1999.90;999.90;;;;;;;8.96;94.51;95292.06;5116710;28;20086;-65
2024/01/19 02:21:32;;;;;;;1999.90;999.90;;;;;;;8.94;94.32;95299.13;5116664;28;20054;-65
2024/01/19 02:24:02;;;;;;;1999.90;999.90;;;;;;;8.96;94.12;95302.50;5116611;28;20086;-71
2024/01/19 02:26:32;;;;;;;1999.90;999.90;;;;;;;8.91;94.11;95297.50;5116793;28;20048;-67
2024/01/19 02:28:59;;;;;;;1999.90;999.90;;;;;;;8.92;94.26;95303.59;5116472;28;20079;-66
2024/01/19 02:31:26;;;;;;;1999.90;999.90;;;;;;;8.91;94.37;95302.72;5116411;28;20481;-68
2024/01/19 02:33:53;;;;;;;1999.90;999.90;;;;;;;8.91;94.37;95294.09;5116413;28;20162;-68
2024/01/19 02:36:20;;;;;;;1999.90;999.90;;;;;;;8.98;94.22;95298.06;5116310;28;20052;-67
2024/01/19 02:38:48;;;;;;;1999.90;999.90;;;;;;;9.00;94.14;95298.81;5116413;28;20044;-67
2024/01/19 02:41:15;;;;;;;1999.90;999.90;;;;;;;9.00;93.84;95304.00;5116192;28;20043;-67
2024/01/19 02:43:43;;;;;;;1999.90;999.90;;;;;;;9.00;93.34;95297.97;5116266;28;20134;-67
2024/01/19 02:46:10;;;;;;;1999.90;999.90;;;;;;;9.01;93.25;95300.50;5116170;28;20132;-68
2024/01/19 02:48:37;;;;;;;1999.90;999.90;;;;;;;9.03;92.74;95298.66;5116030;28;20050;-65
2024/01/19 02:51:04;;;;;;;1999.90;999.90;;;;;;;9.06;92.36;95308.09;5116020;28;20060;-68
2024/01/19 02:53:31;;;;;;;1999.90;999.90;;;;;;;9.07;91.99;95302.81;5095558;28;20039;-66
2024/01/19 02:55:59;;;;;;;1999.90;999.90;;;;;;;9.05;92.00;95307.25;5095610;28;20131;-62
2024/01/19 02:58:26;;;;;;;1999.90;999.90;;;;;;;9.04;91.67;95307.31;5095495;28;20040;-66
2024/01/19 03:00:55;;;;;;;1999.90;999.90;;;;;;;9.03;91.47;95308.25;5095873;28;20132;-64
2024/01/19 03:03:22;;;;;;;1999.90;999.90;;;;;;;9.02;91.46;95309.16;5095549;28;20055;-65
2024/01/19 03:05:50;;;;;;;1999.90;999.90;;;;;;;8.97;91.34;95312.84;5095630;28;20402;-65
2024/01/19 03:08:17;;;;;;;1999.90;999.90;;;;;;;8.96;91.47;95308.56;5095405;28;20117;-66
2024/01/19 03:10:44;;;;;;;1999.90;999.90;;;;;;;8.97;91.52;95305.03;5095211;28;20082;-65
2024/01/19 03:13:11;;;;;;;1999.90;999.90;;;;;;;9.00;91.06;95311.03;5095401;28;20410;-65
2024/01/19 03:15:38;;;;;;;1999.90;999.90;;;;;;;8.95;91.12;95319.06;5095229;28;20090;-67
2024/01/19 03:18:06;;;;;;;1999.90;999.90;;;;;;;8.95;91.21;95319.94;5095156;28;20051;-68
2024/01/19 03:20:33;;;;;;;1999.90;999.90;;;;;;;8.95;90.83;95317.31;5095251;28;20152;-67
2024/01/19 03:23:00;;;;;;;1999.90;999.90;;;;;;;8.95;90.86;95314.72;5094990;28;20501;-66
2024/01/19 03:25:27;;;;;;;1999.90;999.90;;;;;;;8.91;91.04;95310.56;5095173;28;20051;-66
2024/01/19 03:27:54;;;;;;;1999.90;999.90;;;;;;;8.88;92.29;95313.31;5095048;28;20044;-68
2024/01/19 03:30:21;;;;;;;1999.90;999.90;;;;;;;8.76;92.46;95321.78;5094940;28;20048;-66
2024/01/19 03:32:48;;;;;;;1999.90;999.90;;;;;;;8.75;92.67;95322.69;5094843;28;20056;-63
2024/01/19 03:35:17;;;;;;;1999.90;999.90;;;;;;;8.75;93.02;95320.06;5094779;28;20082;-66
2024/01/19 03:37:44;;;;;;;1999.90;999.90;;;;;;;8.71;93.05;95322.84;5094881;28;20066;-66
2024/01/19 03:40:12;;;;;;;1999.90;999.90;;;;;;;8.66;92.83;95324.84;5094808;28;20084;-66
2024/01/19 03:42:38;;;;;;;1999.90;999.90;;;;;;;8.53;92.93;95334.16;5094678;28;20044;-64
2024/01/19 03:45:07;;;;;;;1999.90;999.90;;;;;;;8.45;93.25;95337.97;5094620;28;20126;-66
2024/01/19 03:47:34;;;;;;;1999.90;999.90;;;;;;;8.42;93.23;95332.06;5094655;28;20044;-69
2024/01/19 03:50:02;;;;;;;1999.90;999.90;;;;;;;8.41;94.36;95335.59;5094569;28;20048;-69
2024/01/19 03:52:30;;;;;;;1999.90;999.90;;;;;;;8.29;94.88;95343.09;5105954;28;20048;-67
2024/01/19 03:54:58;;;;;;;1999.90;999.90;;;;;;;8.28;94.98;95341.38;5115061;28;20044;-71
2024/01/19 03:57:24;;;;;;;1999.90;999.90;;;;;;;8.25;93.78;95340.69;5114611;28;20515;-64
2024/01/19 03:59:51;;;;;;;1999.90;999.90;;;;;;;8.21;93.73;95346.06;5114421;28;20048;-70
2024/01/19 04:02:18;;;;;;;1999.90;999.90;;;;;;;8.20;94.19;95352.19;5114540;28;20135;-70
2024/01/19 04:04:45;;;;;;;1999.90;999.90;;;;;;;8.17;94.44;95349.72;5114616;28;20482;-65
2024/01/19 04:07:12;;;;;;;1999.90;999.90;;;;;;;8.13;94.25;95358.59;5114477;28;20558;-69
2024/01/19 04:09:41;;;;;;;1999.90;999.90;;;;;;;8.08;94.63;95353.63;5114582;28;20122;-64
2024/01/19 04:12:14;;;;;;;1999.90;999.90;;;;;;;8.04;94.28;95359.88;5114457;28;20040;-70
2024/01/19 04:14:41;;;;;;;1999.90;999.90;;;;;;;7.91;94.54;95371.75;5114485;28;20044;-69
2024/01/19 04:17:09;;;;;;;1999.90;999.90;;;;;;;7.88;94.44;95370.16;5114310;28;20047;-69
2024/01/19 04:19:36;;;;;;;1999.90;999.90;;;;;;;7.87;94.68;95376.28;5114218;28;20501;-67
2024/01/19 04:22:03;;;;;;;1999.90;999.90;;;;;;;7.86;95.20;95379.81;5114337;28;20047;-68
2024/01/19 04:24:30;;;;;;;1999.90;999.90;;;;;;;7.81;95.11;95387.84;5114357;28;20052;-69
2024/01/19 04:26:58;;;;;;;1999.90;999.90;;;;;;;7.65;97.03;95385.06;5114175;28;20055;-66
2024/01/19 04:29:25;;;;;;;1999.90;999.90;;;;;;;7.63;98.45;95375.63;5114270;28;20073;-64
2024/01/19 04:31:53;;;;;;;1999.90;999.90;;;;;;;7.65;97.35;95386.81;5114012;28;20544;-64
2024/01/19 04:34:20;;;;;;;1999.90;999.90;;;;;;;7.64;97.17;95385.97;5114077;28;20097;-66
2024/01/19 04:36:48;;;;;;;1999.90;999.90;;;;;;;7.59;96.74;95386.19;5114160;28;20067;-63
2024/01/19 04:39:16;;;;;;;1999.90;999.90;;;;;;;7.44;97.27;95379.06;5114204;28;20493;-67
2024/01/19 04:41:43;;;;;;;1999.90;999.90;;;;;;;7.42;97.93;95384.34;5113989;28;20485;-65
2024/01/19 04:44:11;;;;;;;1999.90;999.90;;;;;;;7.39;97.64;95379.25;5113840;28;20093;-69
2024/01/19 04:46:38;;;;;;;1999.90;999.90;;;;;;;7.36;97.87;95387.19;5113950;28;20104;-67
2024/01/19 04:49:05;;;;;;;1999.90;999.90;;;;;;;7.38;98.05;95384.53;5113906;28;20051;-68
2024/01/19 04:51:33;;;;;;;1999.90;999.90;;;;;;;7.35;98.00;95384.66;5113719;28;20086;-67
2024/01/19 04:54:00;;;;;;;1999.90;999.90;;;;;;;7.32;98.05;95394.28;5113742;28;20051;-68
2024/01/19 04:56:27;;;;;;;1999.90;999.90;;;;;;;7.35;98.40;95388.13;5114013;28;20130;-67
2024/01/19 04:58:54;;;;;;;1999.90;999.90;;;;;;;7.26;98.52;95386.78;5113664;28;20054;-67
2024/01/19 05:01:22;;;;;;;1999.90;999.90;;;;;;;7.19;98.96;95386.16;5113562;28;20079;-65
2024/01/19 05:03:49;;;;;;;1999.90;999.90;;;;;;;7.20;98.75;95390.44;5113680;28;20142;-67
2024/01/19 05:06:16;;;;;;;1999.90;999.90;;;;;;;7.20;98.24;95395.66;5113651;28;20047;-68
2024/01/19 05:08:43;;;;;;;1999.90;999.90;;;;;;;7.15;98.43;95396.75;5113434;28;20097;-67
2024/01/19 05:11:13;;;;;;;1999.90;999.90;;;;;;;7.12;97.90;95399.50;5112689;28;20044;-68
2024/01/19 05:13:40;;;;;;;1999.90;999.90;;;;;;;7.05;97.84;95393.72;5113506;28;20108;-68
2024/01/19 05:16:08;;;;;;;1999.90;999.90;;;;;;;7.03;97.84;95387.72;5113743;28;20078;-63
2024/01/19 05:18:38;;;;;;;1999.90;999.90;;;;;;;6.96;97.68;95384.56;5113570;28;20120;-65
2024/01/19 05:21:06;;;;;;;1999.90;999.90;;;;;;;6.83;99.52;95387.66;5113535;28;20100;-66
2024/01/19 05:23:32;;;;;;;1999.90;999.90;;;;;;;6.83;100.00;95392.00;5113352;28;20054;-67
2024/01/19 05:26:00;;;;;;;1999.90;999.90;;;;;;;6.85;99.92;95395.41;5113626;28;20051;-69
2024/01/19 05:28:27;;;;;;;1999.90;999.90;;;;;;;6.82;98.85;95401.56;5113345;28;20052;-67
2024/01/19 05:30:54;;;;;;;1999.90;999.90;;;;;;;6.79;98.10;95403.44;5113384;28;20126;-62
2024/01/19 05:33:21;;;;;;;1999.90;999.90;;;;;;;6.78;97.87;95401.75;5113312;28;20043;-68
2024/01/19 05:35:49;;;;;;;1999.90;999.90;;;;;;;6.76;98.01;95400.97;5113335;28;20048;-68
2024/01/19 05:38:16;;;;;;;1999.90;999.90;;;;;;;6.65;97.55;95412.66;5113413;28;20123;-66
2024/01/19 05:40:43;;;;;;;1999.90;999.90;;;;;;;6.54;97.84;95422.63;5113237;28;20651;-64
2024/01/19 05:43:10;;;;;;;1999.90;999.90;;;;;;;6.53;97.84;95418.34;5113267;28;20053;-65
2024/01/19 05:45:37;;;;;;;1999.90;999.90;;;;;;;6.55;98.06;95417.38;5113183;28;20051;-70
2024/01/19 05:48:05;;;;;;;1999.90;999.90;;;;;;;6.60;97.77;95418.94;5113289;28;20097;-66
2024/01/19 05:50:32;;;;;;;1999.90;999.90;;;;;;;6.55;96.92;95417.38;5113412;28;20094;-68
2024/01/19 05:53:01;;;;;;;1999.90;999.90;;;;;;;6.50;97.33;95419.31;5113106;28;20397;-66
2024/01/19 05:55:28;;;;;;;1999.90;999.90;;;;;;;6.50;96.85;95421.06;5113062;28;20409;-70
2024/01/19 05:57:56;;;;;;;1999.90;999.90;;;;;;;6.46;96.62;95422.94;5113082;28;20134;-65
2024/01/19 06:00:23;;;;;;;1999.90;999.90;;;;;;;6.38;97.06;95425.00;5113132;28;20051;-63
2024/01/19 06:02:51;;;;;;;1999.90;999.90;;;;;;;6.37;97.96;95434.53;5113012;28;20054;-65
2024/01/19 06:05:20;;;;;;;1999.90;999.90;;;;;;;6.42;98.49;95436.97;5113067;28;20089;-69
2024/01/19 06:07:47;;;;;;;1999.90;999.90;;;;;;;6.36;97.12;95430.25;5112929;28;20048;-65
2024/01/19 06:10:15;;;;;;;1999.90;999.90;;;;;;;6.32;96.78;95439.91;5113131;28;20044;-63
2024/01/19 06:12:43;;;;;;;1999.90;999.90;;;;;;;6.30;96.72;95438.28;5113101;28;20477;-68
2024/01/19 06:15:10;;;;;;;1999.90;999.90;;;;;;;6.35;97.54;95449.31;5113058;28;20039;-69
2024/01/19 06:17:38;;;;;;;1999.90;999.90;;;;;;;6.35;97.89;95453.69;5112928;28;20518;-62
2024/01/19 06:20:05;;;;;;;1999.90;999.90;;;;;;;6.27;96.97;95452.25;5112871;28;20039;-62
2024/01/19 06:22:33;;;;;;;1999.90;999.90;;;;;;;6.24;96.68;95454.94;5115652;28;20048;-62
2024/01/19 06:25:00;;;;;;;1999.90;999.90;;;;;;;6.26;95.70;95455.72;5116554;28;20086;-64
2024/01/19 06:27:29;;;;;;;1999.90;999.90;;;;;;;6.25;96.36;95455.78;5116707;28;20504;-64
2024/01/19 06:29:56;;;;;;;1999.90;999.90;;;;;;;6.31;96.45;95456.41;5116512;28;20493;-65
2024/01/19 06:32:23;;;;;;;1999.90;999.90;;;;;;;6.42;96.69;95462.94;5116653;28;20082;-68
2024/01/19 06:34:51;;;;;;;1999.90;999.90;;;;;;;6.64;97.63;95462.94;5116425;28;20162;-70
2024/01/19 06:37:18;;;;;;;1999.90;999.90;;;;;;;6.93;98.12;95465.28;5116322;28;20051;-67
2024/01/19 06:39:46;;;;;;;1999.90;999.90;;;;;;;7.30;95.81;95462.91;5116687;28;20478;-67
2024/01/19 06:42:14;;;;;;;1999.90;999.90;;;;;;;7.57;93.45;95462.63;5116148;28;20523;-67
2024/01/19 06:44:44;;;;;;;1999.90;999.90;;;;;;;8.52;93.93;95478.44;5116242;28;20537;-71
2024/01/19 06:47:11;;;;;;;1999.90;999.90;;;;;;;9.13;88.13;95491.22;5116500;28;20040;-65
2024/01/19 06:49:38;;;;;;;1999.90;999.90;;;;;;;9.35;86.44;95488.41;5116103;28;20078;-66
2024/01/19 06:52:05;;;;;;;1999.90;999.90;;;;;;;9.96;83.34;95478.34;5115842;28;20497;-68
2024/01/19 06:54:33;;;;;;;1999.90;999.90;;;;;;;11.34;77.84;95484.84;5116063;28;20131;-70
2024/01/19 06:57:01;;;;;;;1999.90;999.90;;;;;;;13.11;71.70;95488.19;5115944;28;20092;-68
2024/01/19 06:59:28;;;;;;;1999.90;999.90;;;;;;;14.99;63.81;95491.34;5115953;28;20108;-68
2024/01/19 07:01:56;;;;;;;1999.90;999.90;;;;;;;16.70;56.92;95497.97;5115746;28;20043;-67
2024/01/19 07:04:24;;;;;;;1999.90;999.90;;;;;;;18.06;52.60;95493.97;5115761;28;20569;-68
2024/01/19 07:06:51;;;;;;;1999.90;999.90;;;;;;;19.38;48.99;95483.53;5115831;28;20047;-66
2024/01/19 07:09:18;;;;;;;1999.90;999.90;;;;;;;20.42;45.72;95489.13;5116091;28;20131;-68
2024/01/19 07:11:45;;;;;;;1999.90;999.90;;;;;;;21.50;43.45;95483.34;5115757;28;20079;-68
2024/01/19 07:14:13;;;;;;;1999.90;999.90;;;;;;;22.58;40.87;95481.47;5115705;28;20048;-67
2024/01/19 07:16:40;;;;;;;1999.90;999.90;;;;;;;23.42;38.38;95470.06;5115828;28;20043;-68
2024/01/19 07:19:08;;;;;;;1999.90;999.90;;;;;;;24.03;37.03;95468.06;5115828;28;20108;-62
2024/01/19 07:21:39;;;;;;;1999.90;999.90;;;;;;;24.58;36.35;95466.47;5115655;28;20474;-68
2024/01/19 07:24:06;;;;;;;1999.90;999.90;;;;;;;25.19;34.73;95472.22;5115419;28;20051;-69
2024/01/19 07:26:33;;;;;;;1999.90;999.90;;;;;;;25.87;34.36;95468.91;5115456;28;20082;-70
2024/01/19 07:29:04;;;;;;;1999.90;999.90;;;;;;;26.27;34.40;95473.25;5115343;28;20055;-67
2024/01/19 07:31:31;;;;;;;;;;;;;;;26.82;33.40;95470.31;5115859;28;20082;-68
2024/01/19 07:33:58;;;;;;;1999.90;999.90;;;;;;;27.04;32.69;95483.78;5114408;28;19924;-65
2024/01/19 07:36:27;;;;;;;1999.90;999.90;;;;;;;26.57;33.17;95490.19;5115138;28;20096;-65
2024/01/19 07:38:55;;;;;;;1999.90;999.90;;;;;;;26.77;32.71;95484.25;5115344;28;20056;-69
2024/01/19 07:41:22;;;;;;;1999.90;999.90;;;;;;;26.59;32.23;95492.69;5115161;28;20071;-65
2024/01/19 07:43:49;;;;;;;1999.90;999.90;;;;;;;25.06;34.79;95484.31;5115033;28;20486;-69
2024/01/19 07:46:16;;;;;;;1999.90;999.90;;;;;;;23.57;36.65;95477.44;5115072;28;20100;-64
2024/01/19 07:48:44;;;;;;;1999.90;999.90;;;;;;;22.21;38.90;95473.59;5115121;28;20130;-65
2024/01/19 07:51:11;;;;;;;1999.90;999.90;;;;;;;22.11;40.21;95474.69;5114700;28;20048;-65
2024/01/19 07:53:39;;;;;;;1999.90;999.90;;;;;;;22.91;38.38;95486.09;5114940;28;20055;-66
2024/01/19 07:56:07;;;;;;;1999.90;999.90;;;;;;;23.46;38.78;95484.75;5114862;28;20447;-64
2024/01/19 07:58:34;;;;;;;1999.90;999.90;;;;;;;23.80;37.36;95485.59;5114815;28;20092;-67
2024/01/19 08:01:01;;;;;;;1999.90;999.90;;;;;;;24.60;36.66;95482.31;5114976;28;20054;-68
2024/01/19 08:03:29;;;;;;;1999.90;999.90;;;;;;;24.35;36.86;95485.88;5114726;28;20051;-65
2024/01/19 08:05:55;;;;;;;1999.90;999.90;;;;;;;24.09;36.81;95483.41;5114752;28;20048;-64
2024/01/19 08:08:23;;;;;;;1999.90;999.90;;;;;;;24.85;36.28;95498.25;5114600;28;20481;-67
2024/01/19 08:10:51;;;;;;;1999.90;999.90;;;;;;;25.21;35.61;95505.81;5114500;28;20048;-64
2024/01/19 08:13:19;;;;;;;1999.90;999.90;;;;;;;25.59;35.40;95510.44;5114689;28;20057;-65
2024/01/19 08:15:45;;;;;;;1999.90;999.90;;;;;;;26.44;34.55;95504.22;5114474;28;20054;-67
2024/01/19 08:18:13;;;;;;;1999.90;999.90;;;;;;;27.23;32.38;95518.06;5114459;28;20534;-63
2024/01/19 08:20:40;;;;;;;1999.90;999.90;;;;;;;28.09;30.61;95522.88;5114384;28;20493;-65
2024/01/19 08:23:07;;;;;;;75.28;71.13;;;;;;;28.85;30.09;95520.50;5114137;28;20505;-65
2024/01/19 08:25:34;;;;;;;77.47;73.10;;;;;;;29.38;29.20;95513.72;5114320;28;20047;-65
2024/01/19 08:28:02;;;;;;;93.40;88.30;;;;;;;29.80;28.43;95521.72;5114308;28;20134;-64
2024/01/19 08:30:30;;;;;;;65.43;61.72;;;;;;;30.48;27.34;95517.19;5114125;28;20050;-65
2024/01/19 08:32:57;;;;;;;60.22;56.95;;;;;;;30.77;26.73;95520.50;5114122;28;20047;-64
2024/01/19 08:35:23;;;;;;;58.25;55.08;;;;;;;30.84;25.78;95516.94;5114133;28;20075;-65
2024/01/19 08:37:50;;;;;;;49.85;46.97;;;;;;;29.74;27.28;95523.34;5114169;28;20135;-65
2024/01/19 08:40:17;;;;;;;35.08;33.00;;;;;;;28.86;29.46;95514.94;5113893;28;20083;-63
2024/01/19 08:42:45;;;;;;;44.20;41.70;;;;;;;28.34;29.71;95512.56;5113904;28;20131;-62
2024/01/19 08:45:13;;;;;;;42.03;39.67;;;;;;;27.79;29.87;95521.16;5113835;28;20097;-68
2024/01/19 08:47:40;;;;;;;46.25;43.55;;;;;;;27.31;30.66;95522.50;5113865;28;20046;-68
2024/01/19 08:50:08;;;;;;;40.50;38.28;;;;;;;26.21;31.42;95521.16;5113880;28;20051;-64
2024/01/19 08:52:35;;;;;;;44.42;41.88;;;;;;;25.28;34.86;95519.31;5113564;28;20493;-65
2024/01/19 08:55:02;;;;;;;39.05;36.85;;;;;;;24.25;35.34;95524.47;5113764;28;20588;-67
2024/01/19 08:57:29;;;;;;;41.53;39.17;;;;;;;23.50;36.90;95527.13;5113889;28;20045;-68
2024/01/19 08:59:56;;;;;;;1999.90;999.90;;;;;;;22.60;39.44;95524.75;5113887;28;20047;-63
2024/01/19 09:02:24;;;;;;;1999.90;999.90;;;;;;;21.91;39.06;95525.47;5113976;28;20083;-66
2024/01/19 09:04:51;;;;;;;1999.90;999.90;;;;;;;21.27;41.50;95534.31;5113555;28;20104;-64
2024/01/19 09:07:18;;;;;;;1999.90;999.90;;;;;;;20.28;44.29;95532.06;5113586;28;20101;-68
2024/01/19 09:09:46;;;;;;;1999.90;999.90;;;;;;;19.54;45.10;95528.06;5113883;28;20085;-66
2024/01/19 09:12:13;;;;;;;1999.90;999.90;;;;;;;19.18;44.85;95531.22;5113586;28;20412;-65
2024/01/19 09:14:39;;;;;;;1999.90;999.90;;;;;;;18.98;46.18;95529.47;5113522;28;20083;-64
2024/01/19 09:17:07;;;;;;;1999.90;999.90;;;;;;;19.03;47.45;95525.44;5113511;28;20051;-67
2024/01/19 09:19:36;;;;;;;1999.90;999.90;;;;;;;18.82;45.88;95521.06;5113380;28;20047;-65
2024/01/19 09:22:03;;;;;;;1999.90;999.90;;;;;;;18.64;46.90;95530.63;5113536;28;20055;-66
2024/01/19 09:24:30;;;;;;;1999.90;999.90;;;;;;;18.54;46.69;95517.34;5113563;28;20104;-67
2024/01/19 09:26:57;;;;;;;1999.90;999.90;;;;;;;18.35;48.35;95510.16;5113277;28;20511;-63
2024/01/19 09:29:24;;;;;;;1999.90;999.90;;;;;;;18.28;48.71;95510.72;5113300;28;20079;-67
2024/01/19 09:31:51;;;;;;;1999.90;999.90;;;;;;;18.11;48.93;95512.13;5113417;28;20122;-63
2024/01/19 09:34:18;;;;;;;1999.90;999.90;;;;;;;17.92;49.07;95521.59;5113400;28;20124;-67
2024/01/19 09:36:46;;;;;;;1999.90;999.90;;;;;;;17.70;51.35;95522.53;5113411;28;20093;-66
2024/01/19 09:39:13;;;;;;;1999.90;999.90;;;;;;;17.49;50.93;95511.97;5113442;28;20046;-69
2024/01/19 09:41:47;;;;;;;1999.90;999.90;;;;;;;17.38;50.34;95521.59;5113294;28;20046;-65
2024/01/19 09:44:16;;;;;;;1999.90;999.90;;;;;;;17.23;50.47;95518.41;5113102;28;20048;-70
2024/01/19 09:47:12;;;;;;;1999.90;999.90;;;;;;;17.20;51.06;95528.38;5113150;28;20083;-69
2024/01/19 09:49:49;;;;;;;1999.90;999.90;;;;;;;17.08;51.62;95531.06;5113141;28;20565;-69
2024/01/19 09:52:28;;;;;;;1999.90;999.90;;;;;;;17.04;50.29;95524.31;5112977;28;20554;-66
2024/01/19 09:54:55;;;;;;;1999.90;999.90;;;;;;;17.05;50.98;95523.34;5113100;28;20051;-62
2024/01/19 09:57:23;;;;;;;1999.90;999.90;;;;;;;17.07;51.03;95523.25;5115823;28;20048;-69
2024/01/19 09:59:50;;;;;;;1999.90;999.90;;;;;;;17.07;51.19;95524.09;5117133;28;20416;-67
2024/01/19 10:02:18;;;;;;;1999.90;999.90;;;;;;;17.11;50.96;95511.47;5117046;28;20467;-66
2024/01/19 10:04:46;;;;;;;1999.90;999.90;;;;;;;17.21;51.35;95504.47;5116949;28;20108;-62
2024/01/19 10:07:13;;;;;;;1999.90;999.90;;;;;;;17.20;51.58;95505.44;5117117;28;20466;-66
2024/01/19 10:09:42;;;;;;;1999.90;999.90;;;;;;;17.35;51.50;95513.09;5116920;28;20044;-67
2024/01/19 10:12:11;;;;;;;1999.90;999.90;;;;;;;17.34;51.53;95504.31;5116837;28;20052;-65
2024/01/19 10:14:40;;;;;;;1999.90;999.90;;;;;;;17.44;53.14;95501.75;5116837;28;20044;-68
2024/01/19 10:17:07;;;;;;;1999.90;999.90;;;;;;;17.44;49.95;95493.84;5116969;28;20065;-68
2024/01/19 10:19:35;;;;;;;1999.90;999.90;;;;;;;17.40;50.07;95481.84;5116835;28;20073;-65
2024/01/19 10:22:26;;;;;;;1999.90;999.90;;;;;;;17.41;50.20;95479.06;5116847;28;20051;-65
2024/01/19 10:25:02;;;;;;;1999.90;999.90;;;;;;;17.37;50.54;95484.75;5116764;28;20055;-66
2024/01/19 10:27:39;;;;;;;1999.90;999.90;;;;;;;17.38;48.93;95476.69;5116615;28;20551;-65
2024/01/19 10:30:11;;;;;;;1999.90;999.90;;;;;;;17.44;50.04;95480.63;5116931;28;20048;-67
2024/01/19 10:32:39;;;;;;;1999.90;999.90;;;;;;;17.46;50.70;95476.03;5116561;28;20075;-70
2024/01/19 10:35:11;;;;;;;1999.90;999.90;;;;;;;17.47;47.04;95464.50;5117076;28;20043;-64
2024/01/19 10:37:38;;;;;;;1999.90;999.90;;;;;;;17.42;47.08;95469.31;5116421;28;20052;-69
2024/01/19 10:40:19;;;;;;;1999.90;999.90;;;;;;;17.51;49.10;95470.34;5116352;28;20566;-66
2024/01/19 10:42:47;;;;;;;1999.90;999.90;;;;;;;17.47;48.86;95461.88;5116336;28;20556;-66
2024/01/19 10:45:16;;;;;;;1999.90;999.90;;;;;;;17.63;49.01;95455.28;5116073;28;20629;-65
2024/01/19 10:47:44;;;;;;;1999.90;999.90;;;;;;;17.62;48.88;95459.75;5116188;28;20104;-69
2024/01/19 10:50:14;;;;;;;1999.90;999.90;;;;;;;17.49;49.58;95451.16;5116271;28;20047;-67
2024/01/19 10:52:45;;;;;;;1999.90;999.90;;;;;;;17.44;50.19;95459.47;5116204;28;20059;-67
2024/01/19 10:55:20;;;;;;;1999.90;999.90;;;;;;;17.50;48.01;95442.25;5116082;28;20481;-64
2024/01/19 10:57:49;;;;;;;1999.90;999.90;;;;;;;17.58;48.32;95436.34;5116031;28;20054;-65
2024/01/19 11:00:20;;;;;;;1999.90;999.90;;;;;;;17.61;47.91;95436.06;5116061;28;20449;-67
2024/01/19 11:02:48;;;;;;;1999.90;999.90;;;;;;;17.63;47.41;95439.41;5115903;28;20566;-66